Página principal
METAR-TAF:

METAR-TAF

Aeroportos :

Pantelária, Itália

latitude: 36-49N, longitude: 011-58E, altura: 191 m

Observação actual do tempo

O boletim foi feito há 1 hora e 3 minutos, às 12:55 UTC
Vento 16 kt de nor-noroeste
Temperatura 13°C
Humidade 77%
Pressão 1025 hPa
Visibilidade 10 km ou mais
Nuvens dispersasa uma altura de 3000 ft

METAR: LICG 181255Z 33016KT 9999 SCT030 13/09 Q1025 RMK SCT VIS MIN 9999 WIND THR08 30012G27KT WIND THR21 35016KT BLU

Hora: 14:58 (13:58 UTC)

Previsão

O boletim foi feito há 2 horas e 58 minutos, às 11:00 UTC
Previsão válida de 18 às 12 UTC a 18 às 21 UTC
Vento 15 kt de nor-noroeste
Visibilidade 10 km ou mais
Nuvens dispersasa uma altura de 2500 ft
Temporariamente
de 18 às 12 UTC a 18 às 18 UTC
Vento 15 kt de nor-noroeste com rajadas de 25 kt

TAF: LICG 181100Z 1812/1821 33015KT 9999 SCT025 TEMPO 1812/1818 33015G25KT

Observações e previsões do tempo de mais de 4000 aeroportos (mensagens METAR e TAF).

As estações disponíveis são os pontos amarelos e vermelhos sobre o mapa.

Mova o rato sobre o mapa para ver o nome da estação.

Depois clique no ponto para visualizar as observações e previsões meteorológicas.

Para alterar o mapa : clique nos botões verdes com uma cruz preta para aumentar o zoom; no botão verde com uma pitada de zoom; ou nas setas verdes para mapas adjacentes.


METAR-TAF: